sensor_id;sensor_type;location;lat;lon;timestamp;pressure;altitude;pressure_sealevel;temperature
61390;BMP280;47260;48.274;19.814;2022-11-12T00:01:41;100855.19;;;6.11
61390;BMP280;47260;48.274;19.814;2022-11-12T00:04:25;100860.53;;;6.11
61390;BMP280;47260;48.274;19.814;2022-11-12T00:07:12;100856.38;;;6.10
61390;BMP280;47260;48.274;19.814;2022-11-12T00:09:56;100863.50;;;6.13
61390;BMP280;47260;48.274;19.814;2022-11-12T00:12:41;100868.84;;;6.13
61390;BMP280;47260;48.274;19.814;2022-11-12T00:15:27;100865.00;;;6.14
61390;BMP280;47260;48.274;19.814;2022-11-12T00:18:11;100859.69;;;6.14
61390;BMP280;47260;48.274;19.814;2022-11-12T00:20:56;100853.72;;;6.10
61390;BMP280;47260;48.274;19.814;2022-11-12T00:23:43;100856.25;;;6.14
61390;BMP280;47260;48.274;19.814;2022-11-12T00:26:28;100861.19;;;6.15
61390;BMP280;47260;48.274;19.814;2022-11-12T00:29:12;100855.09;;;6.15
61390;BMP280;47260;48.274;19.814;2022-11-12T00:31:57;100851.94;;;6.20
61390;BMP280;47260;48.274;19.814;2022-11-12T00:34:43;100851.84;;;6.23
61390;BMP280;47260;48.274;19.814;2022-11-12T00:37:28;100850.84;;;6.17
61390;BMP280;47260;48.274;19.814;2022-11-12T00:40:14;100856.94;;;6.18
61390;BMP280;47260;48.274;19.814;2022-11-12T00:42:59;100854.34;;;6.14
61390;BMP280;47260;48.274;19.814;2022-11-12T00:45:44;100847.84;;;6.15
61390;BMP280;47260;48.274;19.814;2022-11-12T00:48:29;100845.53;;;6.17
61390;BMP280;47260;48.274;19.814;2022-11-12T00:51:14;100850.41;;;6.19
61390;BMP280;47260;48.274;19.814;2022-11-12T00:53:59;100835.44;;;6.25
61390;BMP280;47260;48.274;19.814;2022-11-12T00:56:47;100840.09;;;6.21
61390;BMP280;47260;48.274;19.814;2022-11-12T00:59:33;100836.00;;;6.16
61390;BMP280;47260;48.274;19.814;2022-11-12T01:02:17;100834.09;;;6.17
61390;BMP280;47260;48.274;19.814;2022-11-12T01:05:03;100838.34;;;6.14
61390;BMP280;47260;48.274;19.814;2022-11-12T01:07:48;100839.97;;;6.12
61390;BMP280;47260;48.274;19.814;2022-11-12T01:10:33;100835.69;;;6.14
61390;BMP280;47260;48.274;19.814;2022-11-12T01:13:20;100831.63;;;6.10
61390;BMP280;47260;48.274;19.814;2022-11-12T01:16:05;100844.63;;;6.08
61390;BMP280;47260;48.274;19.814;2022-11-12T01:18:51;100845.19;;;5.99
61390;BMP280;47260;48.274;19.814;2022-11-12T01:21:37;100832.13;;;6.05
61390;BMP280;47260;48.274;19.814;2022-11-12T01:24:23;100840.88;;;6.05
61390;BMP280;47260;48.274;19.814;2022-11-12T01:27:07;100844.63;;;6.08
61390;BMP280;47260;48.274;19.814;2022-11-12T01:29:53;100846.78;;;6.13
61390;BMP280;47260;48.274;19.814;2022-11-12T01:32:38;100841.09;;;6.11
61390;BMP280;47260;48.274;19.814;2022-11-12T01:35:23;100832.69;;;6.12
61390;BMP280;47260;48.274;19.814;2022-11-12T01:38:08;100825.75;;;6.15
61390;BMP280;47260;48.274;19.814;2022-11-12T01:40:53;100826.53;;;6.15
61390;BMP280;47260;48.274;19.814;2022-11-12T01:43:37;100817.66;;;6.18
61390;BMP280;47260;48.274;19.814;2022-11-12T01:46:24;100820.00;;;6.16
61390;BMP280;47260;48.274;19.814;2022-11-12T01:49:12;100814.34;;;6.14
61390;BMP280;47260;48.274;19.814;2022-11-12T01:52:00;100822.66;;;6.16
61390;BMP280;47260;48.274;19.814;2022-11-12T01:54:48;100827.69;;;6.14
61390;BMP280;47260;48.274;19.814;2022-11-12T01:57:36;100830.66;;;6.16
61390;BMP280;47260;48.274;19.814;2022-11-12T02:00:22;100823.84;;;6.15
61390;BMP280;47260;48.274;19.814;2022-11-12T02:03:09;100818.28;;;6.10
61390;BMP280;47260;48.274;19.814;2022-11-12T02:05:57;100825.53;;;6.09
61390;BMP280;47260;48.274;19.814;2022-11-12T02:08:43;100830.00;;;6.12
61390;BMP280;47260;48.274;19.814;2022-11-12T02:11:28;100833.13;;;6.11
61390;BMP280;47260;48.274;19.814;2022-11-12T02:14:13;100827.78;;;6.11
61390;BMP280;47260;48.274;19.814;2022-11-12T02:16:57;100812.53;;;6.11
61390;BMP280;47260;48.274;19.814;2022-11-12T02:19:44;100829.59;;;6.14
61390;BMP280;47260;48.274;19.814;2022-11-12T02:22:31;100828.53;;;6.11
61390;BMP280;47260;48.274;19.814;2022-11-12T02:25:16;100821.28;;;6.12
61390;BMP280;47260;48.274;19.814;2022-11-12T02:28:03;100831.31;;;6.08
61390;BMP280;47260;48.274;19.814;2022-11-12T02:30:48;100819.69;;;6.14
61390;BMP280;47260;48.274;19.814;2022-11-12T02:33:33;100825.28;;;6.04
61390;BMP280;47260;48.274;19.814;2022-11-12T02:36:18;100821.06;;;5.90
61390;BMP280;47260;48.274;19.814;2022-11-12T02:39:04;100825.00;;;5.86
61390;BMP280;47260;48.274;19.814;2022-11-12T02:41:50;100819.97;;;5.88
61390;BMP280;47260;48.274;19.814;2022-11-12T02:44:34;100812.06;;;5.84
61390;BMP280;47260;48.274;19.814;2022-11-12T02:47:20;100815.69;;;5.78
61390;BMP280;47260;48.274;19.814;2022-11-12T02:50:05;100810.84;;;5.73
61390;BMP280;47260;48.274;19.814;2022-11-12T02:52:50;100818.00;;;5.76
61390;BMP280;47260;48.274;19.814;2022-11-12T02:55:36;100823.94;;;5.67
61390;BMP280;47260;48.274;19.814;2022-11-12T02:58:21;100821.47;;;5.56
61390;BMP280;47260;48.274;19.814;2022-11-12T03:01:06;100835.00;;;5.49
61390;BMP280;47260;48.274;19.814;2022-11-12T03:03:51;100827.47;;;5.44
61390;BMP280;47260;48.274;19.814;2022-11-12T03:06:36;100838.13;;;5.44
61390;BMP280;47260;48.274;19.814;2022-11-12T03:09:22;100838.94;;;5.41
61390;BMP280;47260;48.274;19.814;2022-11-12T03:12:08;100843.31;;;5.35
61390;BMP280;47260;48.274;19.814;2022-11-12T03:14:53;100845.69;;;5.30
61390;BMP280;47260;48.274;19.814;2022-11-12T03:17:38;100845.84;;;5.23
61390;BMP280;47260;48.274;19.814;2022-11-12T03:20:23;100843.25;;;5.19
61390;BMP280;47260;48.274;19.814;2022-11-12T03:23:08;100846.81;;;5.13
61390;BMP280;47260;48.274;19.814;2022-11-12T03:25:54;100847.31;;;5.08
61390;BMP280;47260;48.274;19.814;2022-11-12T03:28:40;100845.47;;;5.05
61390;BMP280;47260;48.274;19.814;2022-11-12T03:31:25;100847.09;;;4.99
61390;BMP280;47260;48.274;19.814;2022-11-12T03:34:10;100849.28;;;5.04
61390;BMP280;47260;48.274;19.814;2022-11-12T03:36:55;100844.81;;;5.01
61390;BMP280;47260;48.274;19.814;2022-11-12T03:39:40;100852.84;;;4.77
61390;BMP280;47260;48.274;19.814;2022-11-12T03:42:25;100857.25;;;4.68
61390;BMP280;47260;48.274;19.814;2022-11-12T03:45:11;100855.03;;;4.63
61390;BMP280;47260;48.274;19.814;2022-11-12T03:47:57;100843.41;;;4.53
61390;BMP280;47260;48.274;19.814;2022-11-12T03:50:42;100848.81;;;4.50
61390;BMP280;47260;48.274;19.814;2022-11-12T03:53:27;100840.91;;;4.46
61390;BMP280;47260;48.274;19.814;2022-11-12T03:56:11;100844.28;;;4.50
61390;BMP280;47260;48.274;19.814;2022-11-12T03:58:56;100852.41;;;4.40
61390;BMP280;47260;48.274;19.814;2022-11-12T04:01:42;100874.50;;;4.37
61390;BMP280;47260;48.274;19.814;2022-11-12T04:04:27;100867.41;;;4.30
61390;BMP280;47260;48.274;19.814;2022-11-12T04:07:32;100870.47;;;4.29
61390;BMP280;47260;48.274;19.814;2022-11-12T04:10:35;100871.50;;;4.35
61390;BMP280;47260;48.274;19.814;2022-11-12T04:13:20;100876.34;;;4.40
61390;BMP280;47260;48.274;19.814;2022-11-12T04:16:15;100884.63;;;4.45
61390;BMP280;47260;48.274;19.814;2022-11-12T04:19:20;100878.94;;;4.43
61390;BMP280;47260;48.274;19.814;2022-11-12T04:22:23;100861.03;;;4.47
61390;BMP280;47260;48.274;19.814;2022-11-12T04:25:07;100857.00;;;4.59
61390;BMP280;47260;48.274;19.814;2022-11-12T04:28:10;100852.44;;;4.59
61390;BMP280;47260;48.274;19.814;2022-11-12T04:30:55;100854.69;;;4.61
61390;BMP280;47260;48.274;19.814;2022-11-12T04:33:39;100841.63;;;4.70
61390;BMP280;47260;48.274;19.814;2022-11-12T04:36:25;100840.84;;;4.69
61390;BMP280;47260;48.274;19.814;2022-11-12T04:39:10;100838.97;;;4.70
61390;BMP280;47260;48.274;19.814;2022-11-12T04:41:55;100839.28;;;4.72
61390;BMP280;47260;48.274;19.814;2022-11-12T04:44:57;100834.88;;;4.65
61390;BMP280;47260;48.274;19.814;2022-11-12T04:47:46;100833.69;;;4.66
61390;BMP280;47260;48.274;19.814;2022-11-12T04:50:31;100834.69;;;4.72
61390;BMP280;47260;48.274;19.814;2022-11-12T04:53:17;100845.22;;;4.79
61390;BMP280;47260;48.274;19.814;2022-11-12T04:56:02;100839.72;;;4.70
61390;BMP280;47260;48.274;19.814;2022-11-12T04:58:48;100842.97;;;4.78
61390;BMP280;47260;48.274;19.814;2022-11-12T05:01:32;100840.56;;;4.83
61390;BMP280;47260;48.274;19.814;2022-11-12T05:04:17;100846.25;;;4.85
61390;BMP280;47260;48.274;19.814;2022-11-12T05:07:02;100841.53;;;4.93
61390;BMP280;47260;48.274;19.814;2022-11-12T05:09:49;100830.94;;;4.89
61390;BMP280;47260;48.274;19.814;2022-11-12T05:12:33;100831.44;;;4.84
61390;BMP280;47260;48.274;19.814;2022-11-12T05:15:18;100846.03;;;4.76
61390;BMP280;47260;48.274;19.814;2022-11-12T05:18:03;100845.56;;;4.62
61390;BMP280;47260;48.274;19.814;2022-11-12T05:20:48;100847.13;;;4.59
61390;BMP280;47260;48.274;19.814;2022-11-12T05:23:36;100852.78;;;4.61
61390;BMP280;47260;48.274;19.814;2022-11-12T05:26:23;100848.75;;;4.73
61390;BMP280;47260;48.274;19.814;2022-11-12T05:29:08;100847.47;;;4.81
61390;BMP280;47260;48.274;19.814;2022-11-12T05:31:52;100851.22;;;4.83
61390;BMP280;47260;48.274;19.814;2022-11-12T05:34:37;100859.19;;;4.83
61390;BMP280;47260;48.274;19.814;2022-11-12T05:37:22;100857.88;;;4.91
61390;BMP280;47260;48.274;19.814;2022-11-12T05:40:08;100866.63;;;4.92
61390;BMP280;47260;48.274;19.814;2022-11-12T05:42:54;100878.38;;;4.95
61390;BMP280;47260;48.274;19.814;2022-11-12T05:45:41;100877.91;;;5.00
61390;BMP280;47260;48.274;19.814;2022-11-12T05:48:26;100884.91;;;5.10
61390;BMP280;47260;48.274;19.814;2022-11-12T05:51:11;100877.97;;;5.16
61390;BMP280;47260;48.274;19.814;2022-11-12T05:53:58;100877.88;;;5.19
61390;BMP280;47260;48.274;19.814;2022-11-12T05:56:43;100873.94;;;5.24
61390;BMP280;47260;48.274;19.814;2022-11-12T05:59:30;100883.47;;;5.25
61390;BMP280;47260;48.274;19.814;2022-11-12T06:02:15;100880.72;;;5.28
61390;BMP280;47260;48.274;19.814;2022-11-12T06:04:59;100893.63;;;5.30
61390;BMP280;47260;48.274;19.814;2022-11-12T06:07:44;100890.16;;;5.33
61390;BMP280;47260;48.274;19.814;2022-11-12T06:10:30;100895.41;;;5.36
61390;BMP280;47260;48.274;19.814;2022-11-12T06:13:15;100894.50;;;5.43
61390;BMP280;47260;48.274;19.814;2022-11-12T06:16:01;100890.59;;;5.47
61390;BMP280;47260;48.274;19.814;2022-11-12T06:18:46;100895.31;;;5.56
61390;BMP280;47260;48.274;19.814;2022-11-12T06:21:30;100901.69;;;5.62
61390;BMP280;47260;48.274;19.814;2022-11-12T06:24:15;100904.06;;;5.40
61390;BMP280;47260;48.274;19.814;2022-11-12T06:27:00;100911.38;;;5.36
61390;BMP280;47260;48.274;19.814;2022-11-12T06:29:45;100914.78;;;5.37
61390;BMP280;47260;48.274;19.814;2022-11-12T06:32:31;100915.81;;;5.59
61390;BMP280;47260;48.274;19.814;2022-11-12T06:35:16;100920.09;;;5.73
61390;BMP280;47260;48.274;19.814;2022-11-12T06:38:01;100929.53;;;5.77
61390;BMP280;47260;48.274;19.814;2022-11-12T06:40:46;100934.38;;;5.82
61390;BMP280;47260;48.274;19.814;2022-11-12T06:43:31;100936.28;;;5.82
61390;BMP280;47260;48.274;19.814;2022-11-12T06:46:17;100934.59;;;5.88
61390;BMP280;47260;48.274;19.814;2022-11-12T06:49:04;100940.19;;;5.77
61390;BMP280;47260;48.274;19.814;2022-11-12T06:51:49;100946.03;;;5.88
61390;BMP280;47260;48.274;19.814;2022-11-12T06:54:34;100956.44;;;5.47
61390;BMP280;47260;48.274;19.814;2022-11-12T06:57:19;100952.47;;;5.71
61390;BMP280;47260;48.274;19.814;2022-11-12T07:00:04;100955.50;;;5.89
61390;BMP280;47260;48.274;19.814;2022-11-12T07:02:49;100955.34;;;6.12
61390;BMP280;47260;48.274;19.814;2022-11-12T07:05:36;100952.03;;;6.24
61390;BMP280;47260;48.274;19.814;2022-11-12T07:08:21;100948.34;;;6.34
61390;BMP280;47260;48.274;19.814;2022-11-12T07:11:06;100954.25;;;6.42
61390;BMP280;47260;48.274;19.814;2022-11-12T07:13:51;100945.34;;;6.00
61390;BMP280;47260;48.274;19.814;2022-11-12T07:16:36;100963.25;;;6.16
61390;BMP280;47260;48.274;19.814;2022-11-12T07:19:21;100963.13;;;6.23
61390;BMP280;47260;48.274;19.814;2022-11-12T07:22:07;100968.47;;;6.23
61390;BMP280;47260;48.274;19.814;2022-11-12T07:24:52;100976.69;;;6.44
61390;BMP280;47260;48.274;19.814;2022-11-12T07:27:37;100981.75;;;6.55
61390;BMP280;47260;48.274;19.814;2022-11-12T07:30:22;100966.63;;;7.22
61390;BMP280;47260;48.274;19.814;2022-11-12T07:33:07;100970.13;;;7.19
61390;BMP280;47260;48.274;19.814;2022-11-12T07:35:56;100968.88;;;7.36
61390;BMP280;47260;48.274;19.814;2022-11-12T07:38:42;100969.31;;;7.35
61390;BMP280;47260;48.274;19.814;2022-11-12T07:41:27;100964.75;;;7.60
61390;BMP280;47260;48.274;19.814;2022-11-12T07:44:12;100968.69;;;7.43
61390;BMP280;47260;48.274;19.814;2022-11-12T07:46:57;100976.72;;;7.68
61390;BMP280;47260;48.274;19.814;2022-11-12T07:49:42;100955.28;;;7.18
61390;BMP280;47260;48.274;19.814;2022-11-12T07:52:27;100965.56;;;7.32
61390;BMP280;47260;48.274;19.814;2022-11-12T07:55:13;100971.41;;;7.14
61390;BMP280;47260;48.274;19.814;2022-11-12T07:57:58;100976.72;;;6.73
61390;BMP280;47260;48.274;19.814;2022-11-12T08:00:44;100969.94;;;7.26
61390;BMP280;47260;48.274;19.814;2022-11-12T08:03:28;100974.78;;;7.81
61390;BMP280;47260;48.274;19.814;2022-11-12T08:06:13;100978.31;;;7.66
61390;BMP280;47260;48.274;19.814;2022-11-12T08:08:59;100975.41;;;7.35
61390;BMP280;47260;48.274;19.814;2022-11-12T08:11:45;100966.63;;;7.97
61390;BMP280;47260;48.274;19.814;2022-11-12T08:14:30;100973.78;;;9.43
61390;BMP280;47260;48.274;19.814;2022-11-12T08:17:15;100974.13;;;7.65
61390;BMP280;47260;48.274;19.814;2022-11-12T08:20:00;100974.69;;;8.32
61390;BMP280;47260;48.274;19.814;2022-11-12T08:22:45;100980.34;;;7.87
61390;BMP280;47260;48.274;19.814;2022-11-12T08:25:30;100988.56;;;8.73
61390;BMP280;47260;48.274;19.814;2022-11-12T08:28:16;100984.59;;;8.78
61390;BMP280;47260;48.274;19.814;2022-11-12T08:31:01;100987.47;;;8.15
61390;BMP280;47260;48.274;19.814;2022-11-12T08:33:48;100983.41;;;9.71
61390;BMP280;47260;48.274;19.814;2022-11-12T08:36:33;100991.78;;;9.33
61390;BMP280;47260;48.274;19.814;2022-11-12T08:39:18;100987.69;;;9.20
61390;BMP280;47260;48.274;19.814;2022-11-12T08:42:02;100976.28;;;9.77
61390;BMP280;47260;48.274;19.814;2022-11-12T08:44:49;100991.72;;;10.22
61390;BMP280;47260;48.274;19.814;2022-11-12T08:47:34;100993.97;;;9.56
61390;BMP280;47260;48.274;19.814;2022-11-12T08:50:19;100991.28;;;10.77
61390;BMP280;47260;48.274;19.814;2022-11-12T08:53:05;100989.50;;;10.47
61390;BMP280;47260;48.274;19.814;2022-11-12T08:55:51;100994.34;;;11.12
61390;BMP280;47260;48.274;19.814;2022-11-12T08:58:36;100999.06;;;10.75
61390;BMP280;47260;48.274;19.814;2022-11-12T09:01:22;101005.88;;;11.69
61390;BMP280;47260;48.274;19.814;2022-11-12T09:04:08;100993.09;;;11.88
61390;BMP280;47260;48.274;19.814;2022-11-12T09:06:53;100994.22;;;11.96
61390;BMP280;47260;48.274;19.814;2022-11-12T09:09:38;100999.09;;;11.82
61390;BMP280;47260;48.274;19.814;2022-11-12T09:12:23;101001.47;;;12.28
61390;BMP280;47260;48.274;19.814;2022-11-12T09:15:08;100997.19;;;11.98
61390;BMP280;47260;48.274;19.814;2022-11-12T09:17:57;101006.66;;;12.31
61390;BMP280;47260;48.274;19.814;2022-11-12T09:20:43;100999.63;;;12.48
61390;BMP280;47260;48.274;19.814;2022-11-12T09:23:28;101005.59;;;12.67
61390;BMP280;47260;48.274;19.814;2022-11-12T09:26:13;101005.03;;;11.63
61390;BMP280;47260;48.274;19.814;2022-11-12T09:28:58;101011.47;;;11.65
61390;BMP280;47260;48.274;19.814;2022-11-12T09:31:43;101005.84;;;12.02
61390;BMP280;47260;48.274;19.814;2022-11-12T09:34:29;101006.88;;;12.28
61390;BMP280;47260;48.274;19.814;2022-11-12T09:37:14;101005.34;;;12.03
61390;BMP280;47260;48.274;19.814;2022-11-12T09:39:59;101005.91;;;12.31
61390;BMP280;47260;48.274;19.814;2022-11-12T09:42:45;101009.41;;;12.08
61390;BMP280;47260;48.274;19.814;2022-11-12T09:45:31;101014.28;;;11.95
61390;BMP280;47260;48.274;19.814;2022-11-12T09:48:17;101002.13;;;12.23
61390;BMP280;47260;48.274;19.814;2022-11-12T09:51:08;101012.03;;;12.69
61390;BMP280;47260;48.274;19.814;2022-11-12T09:53:55;101006.34;;;12.53
61390;BMP280;47260;48.274;19.814;2022-11-12T09:56:40;101005.31;;;12.65
61390;BMP280;47260;48.274;19.814;2022-11-12T09:59:26;100996.59;;;12.70
61390;BMP280;47260;48.274;19.814;2022-11-12T10:02:17;101000.97;;;12.15
61390;BMP280;47260;48.274;19.814;2022-11-12T10:05:11;101001.88;;;12.79
61390;BMP280;47260;48.274;19.814;2022-11-12T10:08:04;101004.94;;;12.43
61390;BMP280;47260;48.274;19.814;2022-11-12T10:10:52;101007.50;;;12.37
61390;BMP280;47260;48.274;19.814;2022-11-12T10:13:41;100998.53;;;12.40
61390;BMP280;47260;48.274;19.814;2022-11-12T10:16:42;100991.84;;;12.65
61390;BMP280;47260;48.274;19.814;2022-11-12T10:19:34;100999.47;;;12.96
61390;BMP280;47260;48.274;19.814;2022-11-12T10:22:24;100995.84;;;13.33
61390;BMP280;47260;48.274;19.814;2022-11-12T10:25:13;100987.09;;;13.38
61390;BMP280;47260;48.274;19.814;2022-11-12T10:27:58;100993.63;;;12.82
61390;BMP280;47260;48.274;19.814;2022-11-12T10:30:45;100990.44;;;12.99
61390;BMP280;47260;48.274;19.814;2022-11-12T10:33:30;100982.41;;;13.19
61390;BMP280;47260;48.274;19.814;2022-11-12T10:36:17;100980.81;;;12.63
61390;BMP280;47260;48.274;19.814;2022-11-12T10:39:03;100973.03;;;13.14
61390;BMP280;47260;48.274;19.814;2022-11-12T10:41:50;100971.59;;;12.69
61390;BMP280;47260;48.274;19.814;2022-11-12T10:44:45;100974.75;;;12.82
61390;BMP280;47260;48.274;19.814;2022-11-12T10:47:31;100972.28;;;13.48
61390;BMP280;47260;48.274;19.814;2022-11-12T10:50:17;100972.09;;;13.72
61390;BMP280;47260;48.274;19.814;2022-11-12T10:53:04;100967.19;;;14.42
61390;BMP280;47260;48.274;19.814;2022-11-12T10:55:56;100974.84;;;14.23
61390;BMP280;47260;48.274;19.814;2022-11-12T10:58:42;100966.34;;;13.44
61390;BMP280;47260;48.274;19.814;2022-11-12T11:01:27;100966.94;;;13.34
61390;BMP280;47260;48.274;19.814;2022-11-12T11:04:18;100960.97;;;13.64
61390;BMP280;47260;48.274;19.814;2022-11-12T11:07:06;100952.19;;;13.69
61390;BMP280;47260;48.274;19.814;2022-11-12T11:09:59;100961.25;;;14.12
61390;BMP280;47260;48.274;19.814;2022-11-12T11:12:44;100950.78;;;14.45
61390;BMP280;47260;48.274;19.814;2022-11-12T11:15:31;100952.06;;;14.55
61390;BMP280;47260;48.274;19.814;2022-11-12T11:18:16;100961.66;;;14.31
61390;BMP280;47260;48.274;19.814;2022-11-12T11:21:02;100947.56;;;14.47
61390;BMP280;47260;48.274;19.814;2022-11-12T11:23:50;100951.72;;;14.42
61390;BMP280;47260;48.274;19.814;2022-11-12T11:26:41;100949.75;;;14.43
61390;BMP280;47260;48.274;19.814;2022-11-12T11:32:56;100956.38;;;14.42
61390;BMP280;47260;48.274;19.814;2022-11-12T11:38:53;100950.91;;;14.11
61390;BMP280;47260;48.274;19.814;2022-11-12T11:41:44;100937.78;;;14.24
61390;BMP280;47260;48.274;19.814;2022-11-12T11:44:34;100939.28;;;14.25
61390;BMP280;47260;48.274;19.814;2022-11-12T11:47:25;100940.94;;;14.22
61390;BMP280;47260;48.274;19.814;2022-11-12T11:50:17;100936.44;;;14.14
61390;BMP280;47260;48.274;19.814;2022-11-12T11:53:08;100941.53;;;14.06
61390;BMP280;47260;48.274;19.814;2022-11-12T11:55:58;100937.16;;;14.09
61390;BMP280;47260;48.274;19.814;2022-11-12T11:58:49;100931.97;;;14.11
61390;BMP280;47260;48.274;19.814;2022-11-12T12:01:38;100934.13;;;14.01
61390;BMP280;47260;48.274;19.814;2022-11-12T12:04:33;100929.72;;;14.04
61390;BMP280;47260;48.274;19.814;2022-11-12T12:07:27;100939.00;;;13.97
61390;BMP280;47260;48.274;19.814;2022-11-12T12:10:16;100923.09;;;14.05
61390;BMP280;47260;48.274;19.814;2022-11-12T12:13:05;100931.25;;;14.10
61390;BMP280;47260;48.274;19.814;2022-11-12T12:15:56;100921.88;;;14.06
61390;BMP280;47260;48.274;19.814;2022-11-12T12:18:47;100925.81;;;14.05
61390;BMP280;47260;48.274;19.814;2022-11-12T12:21:35;100924.88;;;14.08
61390;BMP280;47260;48.274;19.814;2022-11-12T12:24:24;100917.03;;;14.10
61390;BMP280;47260;48.274;19.814;2022-11-12T12:27:10;100922.88;;;14.08
61390;BMP280;47260;48.274;19.814;2022-11-12T12:29:56;100919.75;;;14.10
61390;BMP280;47260;48.274;19.814;2022-11-12T12:32:44;100903.66;;;14.01
61390;BMP280;47260;48.274;19.814;2022-11-12T12:35:32;100906.84;;;13.99
61390;BMP280;47260;48.274;19.814;2022-11-12T12:38:19;100905.56;;;13.95
61390;BMP280;47260;48.274;19.814;2022-11-12T12:41:08;100903.16;;;13.97
61390;BMP280;47260;48.274;19.814;2022-11-12T12:43:56;100902.84;;;14.15
61390;BMP280;47260;48.274;19.814;2022-11-12T12:46:43;100901.19;;;14.28
61390;BMP280;47260;48.274;19.814;2022-11-12T12:49:29;100902.47;;;14.27
61390;BMP280;47260;48.274;19.814;2022-11-12T12:52:16;100901.44;;;14.25
61390;BMP280;47260;48.274;19.814;2022-11-12T12:55:01;100898.31;;;14.32
61390;BMP280;47260;48.274;19.814;2022-11-12T12:57:47;100895.38;;;14.35
61390;BMP280;47260;48.274;19.814;2022-11-12T13:00:33;100901.81;;;14.38
61390;BMP280;47260;48.274;19.814;2022-11-12T13:06:24;100890.25;;;14.37
61390;BMP280;47260;48.274;19.814;2022-11-12T13:09:19;100897.88;;;14.39
61390;BMP280;47260;48.274;19.814;2022-11-12T13:12:07;100888.84;;;14.47
61390;BMP280;47260;48.274;19.814;2022-11-12T13:15:13;100892.81;;;14.52
61390;BMP280;47260;48.274;19.814;2022-11-12T13:17:58;100888.41;;;14.54
61390;BMP280;47260;48.274;19.814;2022-11-12T13:20:43;100891.09;;;14.54
61390;BMP280;47260;48.274;19.814;2022-11-12T13:23:48;100879.09;;;14.61
61390;BMP280;47260;48.274;19.814;2022-11-12T13:26:54;100881.53;;;14.59
61390;BMP280;47260;48.274;19.814;2022-11-12T13:29:40;100884.50;;;14.55
61390;BMP280;47260;48.274;19.814;2022-11-12T13:32:33;100889.34;;;14.51
61390;BMP280;47260;48.274;19.814;2022-11-12T13:35:20;100881.19;;;14.46
61390;BMP280;47260;48.274;19.814;2022-11-12T13:38:09;100890.53;;;14.39
61390;BMP280;47260;48.274;19.814;2022-11-12T13:40:56;100896.34;;;14.32
61390;BMP280;47260;48.274;19.814;2022-11-12T13:43:49;100892.09;;;14.26
61390;BMP280;47260;48.274;19.814;2022-11-12T13:46:35;100885.34;;;14.10
61390;BMP280;47260;48.274;19.814;2022-11-12T13:49:21;100885.22;;;13.99
61390;BMP280;47260;48.274;19.814;2022-11-12T13:52:06;100884.06;;;13.80
61390;BMP280;47260;48.274;19.814;2022-11-12T13:54:59;100892.78;;;13.69
61390;BMP280;47260;48.274;19.814;2022-11-12T13:57:47;100890.38;;;13.51
61390;BMP280;47260;48.274;19.814;2022-11-12T14:00:33;100892.78;;;13.29
61390;BMP280;47260;48.274;19.814;2022-11-12T14:03:17;100896.00;;;13.13
61390;BMP280;47260;48.274;19.814;2022-11-12T14:06:05;100885.56;;;12.86
61390;BMP280;47260;48.274;19.814;2022-11-12T14:11:54;100885.75;;;12.48
61390;BMP280;47260;48.274;19.814;2022-11-12T14:14:46;100884.63;;;12.25
61390;BMP280;47260;48.274;19.814;2022-11-12T14:17:38;100879.84;;;12.06
61390;BMP280;47260;48.274;19.814;2022-11-12T14:20:26;100876.72;;;11.93
61390;BMP280;47260;48.274;19.814;2022-11-12T14:23:14;100886.41;;;11.75
61390;BMP280;47260;48.274;19.814;2022-11-12T14:26:00;100888.88;;;11.64
61390;BMP280;47260;48.274;19.814;2022-11-12T14:28:44;100881.66;;;11.47
61390;BMP280;47260;48.274;19.814;2022-11-12T14:31:30;100884.13;;;11.36
61390;BMP280;47260;48.274;19.814;2022-11-12T14:34:19;100889.84;;;11.29
61390;BMP280;47260;48.274;19.814;2022-11-12T14:37:04;100891.66;;;11.23
61390;BMP280;47260;48.274;19.814;2022-11-12T14:39:50;100886.13;;;11.26
61390;BMP280;47260;48.274;19.814;2022-11-12T14:42:35;100899.84;;;11.28
61390;BMP280;47260;48.274;19.814;2022-11-12T14:45:20;100884.66;;;11.25
61390;BMP280;47260;48.274;19.814;2022-11-12T14:48:07;100886.16;;;11.17
61390;BMP280;47260;48.274;19.814;2022-11-12T14:50:54;100895.47;;;11.07
61390;BMP280;47260;48.274;19.814;2022-11-12T14:53:42;100886.25;;;10.99
61390;BMP280;47260;48.274;19.814;2022-11-12T14:56:30;100889.84;;;10.96
61390;BMP280;47260;48.274;19.814;2022-11-12T14:59:16;100892.38;;;11.00
61390;BMP280;47260;48.274;19.814;2022-11-12T15:02:03;100903.13;;;11.00
61390;BMP280;47260;48.274;19.814;2022-11-12T15:04:50;100898.81;;;10.93
61390;BMP280;47260;48.274;19.814;2022-11-12T15:07:51;100904.19;;;10.93
61390;BMP280;47260;48.274;19.814;2022-11-12T15:10:37;100903.97;;;10.73
61390;BMP280;47260;48.274;19.814;2022-11-12T15:13:24;100900.69;;;10.60
61390;BMP280;47260;48.274;19.814;2022-11-12T15:16:10;100901.94;;;10.50
61390;BMP280;47260;48.274;19.814;2022-11-12T15:19:04;100913.88;;;10.40
61390;BMP280;47260;48.274;19.814;2022-11-12T15:21:51;100909.84;;;10.35
61390;BMP280;47260;48.274;19.814;2022-11-12T15:24:37;100918.81;;;10.32
61390;BMP280;47260;48.274;19.814;2022-11-12T15:27:32;100912.41;;;10.21
61390;BMP280;47260;48.274;19.814;2022-11-12T15:30:20;100908.97;;;10.20
61390;BMP280;47260;48.274;19.814;2022-11-12T15:33:07;100916.13;;;10.14
61390;BMP280;47260;48.274;19.814;2022-11-12T15:35:54;100909.13;;;10.08
61390;BMP280;47260;48.274;19.814;2022-11-12T15:38:39;100914.19;;;10.06
61390;BMP280;47260;48.274;19.814;2022-11-12T15:41:24;100918.06;;;10.05
61390;BMP280;47260;48.274;19.814;2022-11-12T15:44:10;100924.19;;;10.05
61390;BMP280;47260;48.274;19.814;2022-11-12T15:46:57;100924.47;;;9.98
61390;BMP280;47260;48.274;19.814;2022-11-12T15:49:46;100927.44;;;9.91
61390;BMP280;47260;48.274;19.814;2022-11-12T15:52:30;100928.00;;;9.86
61390;BMP280;47260;48.274;19.814;2022-11-12T15:55:15;100927.44;;;9.82